Time;durP1;ratioP1;P1;durP2;ratioP2;P2;SDS_P1;SDS_P2;PMS_P1;PMS_P2;Temp;Humidity;BMP_temperature;BMP_pressure;BME280_temperature;BME280_humidity;BME280_pressure;Samples;Min_cycle;Max_cycle;Signal;HPM_P1;HPM_P2
2022/10/15 00:00:53;;;;;;;69.30;27.48;;;12.50;99.90;;;;;;5088572;28;20402;-77
2022/10/15 00:03:18;;;;;;;66.68;27.30;;;12.50;99.90;;;;;;5090361;28;20389;-77
2022/10/15 00:05:44;;;;;;;67.30;28.80;;;12.50;99.90;;;;;;5088571;28;20429;-77
2022/10/15 00:08:10;;;;;;;74.70;30.08;;;12.50;99.90;;;;;;5088686;28;20936;-77
2022/10/15 00:10:37;;;;;;;67.22;28.55;;;12.50;99.90;;;;;;5089287;28;20475;-77
2022/10/15 00:13:04;;;;;;;70.97;28.67;;;12.50;99.90;;;;;;5088142;28;21131;-77
2022/10/15 00:15:29;;;;;;;74.82;30.27;;;12.50;99.90;;;;;;5088298;28;20494;-77
2022/10/15 00:17:55;;;;;;;81.53;32.23;;;12.60;99.90;;;;;;5088303;28;20485;-77
2022/10/15 00:20:21;;;;;;;73.57;31.08;;;12.50;99.90;;;;;;5088016;28;20409;-77
2022/10/15 00:22:47;;;;;;;72.80;30.90;;;12.50;99.90;;;;;;5071448;28;20429;-77
2022/10/15 00:25:12;;;;;;;72.63;31.83;;;12.50;99.90;;;;;;5088115;28;20440;-77
2022/10/15 00:27:38;;;;;;;77.68;31.88;;;12.50;99.90;;;;;;5089533;28;20450;-77
2022/10/15 00:30:05;;;;;;;71.87;31.60;;;12.50;99.90;;;;;;5087886;28;20408;-78
2022/10/15 00:32:31;;;;;;;84.80;33.38;;;12.50;99.90;;;;;;5100004;28;20405;-77
2022/10/15 00:34:57;;;;;;;84.97;33.45;;;12.50;99.90;;;;;;5088284;28;20442;-77
2022/10/15 00:37:23;;;;;;;77.13;31.87;;;12.50;99.90;;;;;;5076548;28;20412;-77
2022/10/15 00:39:48;;;;;;;77.82;33.05;;;12.50;99.90;;;;;;5087844;28;20398;-77
2022/10/15 00:42:15;;;;;;;76.93;32.53;;;12.50;99.90;;;;;;5087660;28;20459;-77
2022/10/15 00:44:54;;;;;;;80.32;34.65;;;12.50;99.90;;;;;;5089575;28;20402;-77
2022/10/15 00:47:25;;;;;;;79.28;33.20;;;12.50;99.90;;;;;;5087844;28;20418;-77
2022/10/15 00:50:06;;;;;;;83.97;33.40;;;12.50;99.90;;;;;;5087523;28;20450;-77
2022/10/15 00:52:49;;;;;;;89.38;34.65;;;12.50;99.90;;;;;;5087657;28;20489;-77
2022/10/15 00:55:17;;;;;;;81.10;34.27;;;12.50;99.90;;;;;;5087668;28;20501;-77
2022/10/15 00:57:46;;;;;;;85.15;35.47;;;12.50;99.90;;;;;;5093536;28;20888;-77
2022/10/15 01:00:16;;;;;;;84.30;35.20;;;12.50;99.90;;;;;;5089495;28;20410;-77
2022/10/15 01:02:43;;;;;;;90.85;37.20;;;12.50;99.90;;;;;;5087627;28;20413;-77
2022/10/15 01:05:10;;;;;;;94.95;35.90;;;12.50;99.90;;;;;;5086699;28;20401;-77
2022/10/15 01:07:35;;;;;;;82.20;34.90;;;12.50;99.90;;;;;;5094809;28;20415;-77
2022/10/15 01:10:03;;;;;;;81.65;34.72;;;12.50;99.90;;;;;;5094334;28;20402;-77
2022/10/15 01:12:55;;;;;;;89.13;35.53;;;12.60;99.90;;;;;;5094480;28;20477;-77
2022/10/15 01:15:28;;;;;;;80.55;36.10;;;12.60;99.90;;;;;;5123632;27;20440;-77
2022/10/15 01:17:58;;;;;;;89.67;36.40;;;12.50;99.90;;;;;;5088463;28;20896;-77
2022/10/15 01:20:33;;;;;;;94.40;36.95;;;12.60;99.90;;;;;;5087392;28;21078;-77
2022/10/15 01:23:35;;;;;;;89.75;36.38;;;12.60;99.90;;;;;;5086461;28;20411;-77
2022/10/15 01:26:35;;;;;;;87.03;37.22;;;12.60;99.90;;;;;;5079108;28;20413;-77
2022/10/15 01:29:19;;;;;;;89.70;37.70;;;12.50;99.90;;;;;;5088146;28;20766;-77
2022/10/15 01:32:14;;;;;;;85.75;36.83;;;12.50;99.90;;;;;;5086614;28;20413;-77
2022/10/15 01:34:53;;;;;;;87.57;38.10;;;12.60;99.90;;;;;;5086534;28;20462;-77
2022/10/15 01:37:45;;;;;;;91.63;38.13;;;12.60;99.90;;;;;;5086881;28;20463;-77
2022/10/15 01:40:34;;;;;;;86.28;38.35;;;12.50;99.90;;;;;;5075184;28;20493;-77
2022/10/15 01:43:03;;;;;;;90.78;38.72;;;12.50;99.90;;;;;;5086707;28;20418;-77
2022/10/15 01:45:35;;;;;;;95.95;40.03;;;12.50;99.90;;;;;;5088232;28;21000;-77
2022/10/15 01:48:08;;;;;;;94.43;39.42;;;12.60;99.90;;;;;;5086756;28;20402;-77
2022/10/15 01:50:37;;;;;;;95.28;39.53;;;12.50;99.90;;;;;;5069626;28;20413;-77
2022/10/15 01:53:05;;;;;;;87.28;38.25;;;12.50;99.90;;;;;;5100444;28;20394;-77
2022/10/15 01:55:33;;;;;;;89.63;39.60;;;12.50;99.90;;;;;;5084332;28;20481;-77
2022/10/15 01:58:00;;;;;;;89.05;38.75;;;12.50;99.90;;;;;;5086802;28;20402;-77
2022/10/15 02:00:26;;;;;;;92.07;38.97;;;12.50;99.90;;;;;;5086151;28;20409;-77
2022/10/15 02:02:51;;;;;;;90.63;38.72;;;12.50;99.90;;;;;;5086891;28;20406;-78
2022/10/15 02:05:23;;;;;;;98.13;40.67;;;12.50;99.90;;;;;;5086216;28;20413;-77
2022/10/15 02:07:51;;;;;;;86.53;37.40;;;12.50;99.90;;;;;;5087372;28;20406;-78
2022/10/15 02:10:34;;;;;;;86.07;39.40;;;12.50;99.90;;;;;;5069879;28;20406;-77
2022/10/15 02:13:35;;;;;;;84.70;38.50;;;12.50;99.90;;;;;;5069778;28;20489;-77
2022/10/15 02:16:24;;;;;;;85.75;37.65;;;12.50;99.90;;;;;;5074608;28;20414;-77
2022/10/15 02:19:07;;;;;;;82.57;38.53;;;12.50;99.90;;;;;;5086429;28;20523;-77
2022/10/15 02:21:46;;;;;;;81.38;38.55;;;12.50;99.90;;;;;;5086415;28;20428;-77
2022/10/15 02:24:36;;;;;;;78.05;37.38;;;12.50;99.90;;;;;;5092024;28;21435;-77
2022/10/15 02:27:03;;;;;;;80.00;36.90;;;12.50;99.90;;;;;;5090093;28;20406;-77
2022/10/15 02:29:33;;;;;;;86.30;37.95;;;12.50;99.90;;;;;;5091610;28;21223;-77
2022/10/15 02:32:00;;;;;;;91.90;38.07;;;12.50;99.90;;;;;;5101975;28;20404;-77
2022/10/15 02:34:29;;;;;;;89.95;39.08;;;12.50;99.90;;;;;;5084150;28;20873;-77
2022/10/15 02:36:57;;;;;;;84.10;38.50;;;12.50;99.90;;;;;;5097754;28;21233;-77
2022/10/15 02:39:24;;;;;;;86.03;37.67;;;12.50;99.90;;;;;;5103383;28;20405;-77
2022/10/15 02:41:52;;;;;;;82.03;38.08;;;12.50;99.90;;;;;;5103505;28;20564;-77
2022/10/15 02:44:17;;;;;;;80.57;38.50;;;12.50;99.90;;;;;;5103106;28;20409;-77
2022/10/15 02:46:43;;;;;;;80.30;37.75;;;12.50;99.90;;;;;;5103644;28;20400;-77
2022/10/15 02:49:08;;;;;;;84.30;37.50;;;12.50;99.90;;;;;;5078086;28;20404;-77
2022/10/15 02:51:35;;;;;;;80.13;37.20;;;12.50;99.90;;;;;;5089940;28;20502;-77
2022/10/15 02:54:05;;;;;;;80.72;36.90;;;12.50;99.90;;;;;;5089566;28;20434;-77
2022/10/15 02:56:31;;;;;;;74.30;36.37;;;12.50;99.90;;;;;;5090276;28;20406;-77
2022/10/15 02:58:57;;;;;;;78.28;36.75;;;12.50;99.90;;;;;;5089758;28;20964;-77
2022/10/15 03:01:23;;;;;;;81.85;37.78;;;12.50;99.90;;;;;;5103093;28;20408;-77
2022/10/15 03:03:48;;;;;;;78.30;36.50;;;12.50;99.90;;;;;;5091003;28;20492;-77
2022/10/15 03:06:14;;;;;;;76.70;36.28;;;12.50;99.90;;;;;;5089963;28;20899;-77
2022/10/15 03:08:41;;;;;;;79.57;36.53;;;12.50;99.90;;;;;;5089765;28;20402;-77
2022/10/15 03:11:08;;;;;;;80.82;35.85;;;12.50;99.90;;;;;;5090014;28;20445;-77
2022/10/15 03:13:38;;;;;;;83.40;37.13;;;12.40;99.90;;;;;;5088941;28;20418;-77
2022/10/15 03:16:05;;;;;;;81.90;37.60;;;12.40;99.90;;;;;;5091267;28;20481;-77
2022/10/15 03:18:31;;;;;;;77.55;36.47;;;12.40;99.90;;;;;;5089681;28;20521;-77
2022/10/15 03:20:58;;;;;;;79.40;38.15;;;12.40;99.90;;;;;;5090403;28;20788;-77
2022/10/15 03:23:23;;;;;;;78.60;35.40;;;12.40;99.90;;;;;;5091026;28;20398;-78
2022/10/15 03:25:49;;;;;;;78.87;36.33;;;12.40;99.90;;;;;;5090754;28;20767;-77
2022/10/15 03:28:15;;;;;;;76.65;36.50;;;12.40;99.90;;;;;;5090678;28;20406;-77
2022/10/15 03:30:42;;;;;;;77.17;35.67;;;12.40;99.90;;;;;;5090073;28;20402;-77
2022/10/15 03:33:08;;;;;;;75.03;35.83;;;12.40;99.90;;;;;;5090034;28;20409;-77
2022/10/15 03:35:33;;;;;;;72.40;35.72;;;12.40;99.90;;;;;;5089528;28;20504;-78
2022/10/15 03:37:59;;;;;;;79.37;36.07;;;12.40;99.90;;;;;;5090413;28;20872;-77
2022/10/15 03:40:25;;;;;;;75.20;35.78;;;12.40;99.90;;;;;;5090508;28;20455;-77
2022/10/15 03:42:51;;;;;;;80.53;37.63;;;12.40;99.90;;;;;;5088902;28;20402;-77
2022/10/15 03:45:20;;;;;;;73.78;36.47;;;12.40;99.90;;;;;;5088496;28;20417;-77
2022/10/15 03:47:45;;;;;;;69.88;35.95;;;12.40;99.90;;;;;;5091877;28;20402;-77
2022/10/15 03:50:11;;;;;;;77.75;37.92;;;12.40;99.90;;;;;;5088914;28;20952;-78
2022/10/15 03:52:37;;;;;;;72.07;36.10;;;12.40;99.90;;;;;;5088956;28;20398;-77
2022/10/15 03:55:04;;;;;;;72.33;36.20;;;12.40;99.90;;;;;;5091141;28;20476;-77
2022/10/15 03:57:30;;;;;;;71.72;36.97;;;12.40;99.90;;;;;;5088727;28;20402;-78
2022/10/15 03:59:56;;;;;;;71.47;37.40;;;12.40;99.90;;;;;;5092625;28;20405;-77
2022/10/15 04:02:22;;;;;;;75.87;37.83;;;12.40;99.90;;;;;;5091615;28;20404;-78
2022/10/15 04:04:50;;;;;;;71.97;35.55;;;12.40;99.90;;;;;;5086720;28;20874;-77
2022/10/15 04:07:15;;;;;;;72.97;36.03;;;12.40;99.90;;;;;;5076550;28;20443;-78
2022/10/15 04:09:41;;;;;;;72.87;36.03;;;12.40;99.90;;;;;;5088973;28;20402;-77
2022/10/15 04:12:06;;;;;;;75.07;36.53;;;12.40;99.90;;;;;;5089412;28;20414;-77
2022/10/15 04:14:32;;;;;;;72.00;36.27;;;12.40;99.90;;;;;;5071430;28;20506;-77
2022/10/15 04:16:58;;;;;;;73.95;36.00;;;12.40;99.90;;;;;;5089949;28;20398;-77
2022/10/15 04:19:23;;;;;;;69.70;35.80;;;12.40;99.90;;;;;;5089146;28;21002;-77
2022/10/15 04:21:49;;;;;;;73.72;35.90;;;12.40;99.90;;;;;;5089739;28;20779;-77
2022/10/15 04:24:15;;;;;;;67.87;36.30;;;12.40;99.90;;;;;;5089213;28;20763;-77
2022/10/15 04:26:40;;;;;;;68.40;35.97;;;12.40;99.90;;;;;;5088528;28;20398;-77
2022/10/15 04:29:06;;;;;;;67.22;36.35;;;12.40;99.90;;;;;;5089284;28;20428;-77
2022/10/15 04:31:32;;;;;;;70.13;34.90;;;12.40;99.90;;;;;;5088007;28;20398;-77
2022/10/15 04:33:58;;;;;;;69.15;34.45;;;12.40;99.90;;;;;;5088321;28;20421;-77
2022/10/15 04:36:23;;;;;;;68.95;35.53;;;12.40;99.90;;;;;;5102120;27;20495;-77
2022/10/15 04:38:49;;;;;;;72.60;34.40;;;12.40;99.90;;;;;;5089024;28;20417;-77
2022/10/15 04:41:15;;;;;;;69.53;35.30;;;12.40;99.90;;;;;;5089119;28;20398;-77
2022/10/15 04:43:40;;;;;;;70.27;34.53;;;12.40;99.90;;;;;;5089899;28;20394;-77
2022/10/15 04:46:07;;;;;;;67.40;34.03;;;12.40;99.90;;;;;;5099639;28;20412;-78
2022/10/15 04:48:34;;;;;;;66.65;33.47;;;12.40;99.90;;;;;;5088300;28;20438;-77
2022/10/15 04:51:11;;;;;;;72.97;35.00;;;12.40;99.90;;;;;;5107470;28;20407;-78
2022/10/15 04:53:37;;;;;;;64.75;33.63;;;12.40;99.90;;;;;;5092342;27;21243;-77
2022/10/15 04:56:05;;;;;;;68.00;34.33;;;12.40;99.90;;;;;;5089155;28;20402;-77
2022/10/15 04:58:32;;;;;;;67.78;34.63;;;12.40;99.90;;;;;;5087497;28;20933;-78
2022/10/15 05:01:02;;;;;;;66.85;32.78;;;12.40;99.90;;;;;;5087613;28;20534;-77
2022/10/15 05:03:29;;;;;;;71.35;33.53;;;12.40;99.90;;;;;;5079805;28;20521;-77
2022/10/15 05:06:09;;;;;;;68.78;33.13;;;12.40;99.90;;;;;;5088918;28;20937;-77
2022/10/15 05:08:35;;;;;;;70.78;34.88;;;12.40;99.90;;;;;;5088107;28;20406;-77
2022/10/15 05:11:06;;;;;;;69.95;33.80;;;12.40;99.90;;;;;;5087274;28;20481;-77
2022/10/15 05:13:32;;;;;;;77.85;35.42;;;12.40;99.90;;;;;;5087963;28;20461;-77
2022/10/15 05:16:20;;;;;;;77.55;35.03;;;12.40;99.90;;;;;;5070667;28;20793;-77
2022/10/15 05:18:47;;;;;;;79.72;36.10;;;12.40;99.90;;;;;;5087762;28;20527;-77
2022/10/15 05:21:14;;;;;;;79.25;34.58;;;12.40;99.90;;;;;;5088435;28;20898;-77
2022/10/15 05:23:40;;;;;;;80.37;34.70;;;12.30;99.90;;;;;;5087213;28;20414;-77
2022/10/15 05:26:10;;;;;;;81.90;36.15;;;12.40;99.90;;;;;;5087231;28;20386;-77
2022/10/15 05:28:36;;;;;;;80.68;35.25;;;12.30;99.90;;;;;;5087254;28;20899;-77
2022/10/15 05:31:10;;;;;;;83.47;35.65;;;12.30;99.90;;;;;;5084182;28;20396;-77
2022/10/15 05:33:36;;;;;;;80.60;35.03;;;12.30;99.90;;;;;;5079519;28;20437;-77
2022/10/15 05:36:16;;;;;;;85.03;36.63;;;12.30;99.90;;;;;;5088359;28;20394;-78
2022/10/15 05:38:42;;;;;;;77.65;35.65;;;12.30;99.90;;;;;;5086367;28;20420;-77
2022/10/15 05:41:08;;;;;;;90.18;36.22;;;12.30;99.90;;;;;;5088072;28;20402;-78
2022/10/15 05:43:34;;;;;;;88.43;36.77;;;12.30;99.90;;;;;;5100014;28;20456;-77
2022/10/15 05:46:00;;;;;;;83.65;35.95;;;12.30;99.90;;;;;;5087617;28;20398;-77
2022/10/15 05:48:25;;;;;;;88.47;35.90;;;12.30;99.90;;;;;;5086033;28;20485;-77
2022/10/15 05:50:51;;;;;;;86.38;35.90;;;12.20;99.90;;;;;;5086945;28;20410;-78
2022/10/15 05:53:17;;;;;;;87.37;36.67;;;12.20;99.90;;;;;;5087337;28;20455;-77
2022/10/15 05:55:42;;;;;;;83.25;35.78;;;12.20;99.90;;;;;;5087119;28;20412;-77
2022/10/15 05:58:08;;;;;;;86.97;36.53;;;12.20;99.90;;;;;;5087086;28;20434;-78
2022/10/15 06:00:34;;;;;;;87.47;37.28;;;12.20;99.90;;;;;;5087209;28;20513;-77
2022/10/15 06:03:00;;;;;;;90.78;37.10;;;12.20;99.90;;;;;;5086777;28;20451;-77
2022/10/15 06:05:26;;;;;;;89.60;38.00;;;12.20;99.90;;;;;;5086229;28;20406;-78
2022/10/15 06:07:51;;;;;;;86.50;37.83;;;12.20;99.90;;;;;;5070038;28;20426;-77
2022/10/15 06:10:17;;;;;;;84.40;35.90;;;12.20;99.90;;;;;;5087571;28;20459;-77
2022/10/15 06:12:48;;;;;;;86.67;37.67;;;12.20;99.90;;;;;;5087223;28;20417;-77
2022/10/15 06:15:14;;;;;;;89.40;37.72;;;12.30;99.90;;;;;;5091674;28;20927;-77
2022/10/15 06:17:39;;;;;;;93.57;38.80;;;12.20;99.90;;;;;;5069352;28;20590;-78
2022/10/15 06:20:05;;;;;;;93.53;38.58;;;12.20;99.90;;;;;;5087718;28;20401;-78
2022/10/15 06:22:31;;;;;;;89.75;38.42;;;12.20;99.90;;;;;;5086918;28;20398;-78
2022/10/15 06:24:56;;;;;;;90.27;40.30;;;12.20;99.90;;;;;;5069853;28;20405;-77
2022/10/15 06:27:22;;;;;;;92.82;38.80;;;12.20;99.90;;;;;;5086377;28;20452;-77
2022/10/15 06:29:47;;;;;;;91.93;39.83;;;12.20;99.90;;;;;;5086479;28;20410;-77
2022/10/15 06:32:13;;;;;;;95.13;40.00;;;12.20;99.90;;;;;;5087718;28;20402;-73
2022/10/15 06:34:38;;;;;;;89.95;39.45;;;12.30;99.90;;;;;;5068738;28;20797;-76
2022/10/15 06:37:04;;;;;;;92.13;39.33;;;12.30;99.90;;;;;;5086519;28;20439;-76
2022/10/15 06:39:30;;;;;;;97.20;40.35;;;12.20;99.90;;;;;;5086038;28;20505;-76
2022/10/15 06:41:55;;;;;;;94.13;40.80;;;12.20;99.90;;;;;;5086569;28;20412;-76
2022/10/15 06:44:21;;;;;;;92.95;40.60;;;12.30;99.90;;;;;;5074798;28;20398;-77
2022/10/15 06:46:46;;;;;;;93.47;40.53;;;12.30;99.90;;;;;;5085895;28;20413;-75
2022/10/15 06:49:12;;;;;;;92.03;40.33;;;12.30;99.90;;;;;;5086218;28;20406;-76
2022/10/15 06:51:37;;;;;;;93.95;39.88;;;12.30;99.90;;;;;;5069925;28;20414;-76
2022/10/15 06:54:03;;;;;;;89.97;40.37;;;12.30;99.90;;;;;;5120217;27;21011;-77
2022/10/15 06:56:29;;;;;;;91.43;40.13;;;12.30;99.90;;;;;;5087315;28;20394;-77
2022/10/15 06:58:54;;;;;;;94.33;41.07;;;12.30;99.90;;;;;;5086025;28;20406;-77
2022/10/15 07:01:20;;;;;;;102.05;41.45;;;12.30;99.90;;;;;;5089708;28;20420;-77
2022/10/15 07:03:50;;;;;;;96.57;40.50;;;12.30;99.90;;;;;;5101597;28;20409;-77
2022/10/15 07:06:16;;;;;;;89.28;40.40;;;12.40;99.90;;;;;;5101635;28;20457;-77
2022/10/15 07:08:42;;;;;;;91.78;40.63;;;12.40;99.90;;;;;;5086881;28;20405;-77
2022/10/15 07:11:08;;;;;;;89.90;39.83;;;12.40;99.90;;;;;;5105254;28;20491;-77
2022/10/15 07:13:34;;;;;;;84.95;38.92;;;12.40;99.90;;;;;;5077415;28;20520;-79
2022/10/15 07:16:10;;;;;;;94.20;41.53;;;12.40;99.90;;;;;;5105784;28;20495;-77
2022/10/15 07:18:37;;;;;;;93.90;40.55;;;12.40;99.90;;;;;;5104379;28;20465;-77
2022/10/15 07:21:05;;;;;;;86.95;40.10;;;12.40;99.90;;;;;;5106797;28;20396;-77
2022/10/15 07:23:31;;;;;;;92.35;40.53;;;12.50;99.90;;;;;;5095027;28;20956;-77
2022/10/15 07:25:57;;;;;;;89.10;39.25;;;12.50;99.90;;;;;;5090453;28;20406;-77
2022/10/15 07:28:23;;;;;;;86.28;38.78;;;12.50;99.90;;;;;;5090886;28;20401;-77
2022/10/15 07:30:49;;;;;;;83.45;38.40;;;12.50;99.90;;;;;;5091098;28;20394;-77
2022/10/15 07:33:15;;;;;;;82.37;38.30;;;12.60;99.90;;;;;;5098163;28;20404;-77
2022/10/15 07:35:40;;;;;;;90.22;39.28;;;12.60;99.90;;;;;;5092718;28;20764;-77
2022/10/15 07:38:06;;;;;;;85.17;38.40;;;12.60;99.90;;;;;;5090654;28;20416;-77
2022/10/15 07:40:32;;;;;;;83.95;39.88;;;12.60;99.90;;;;;;5089237;28;20413;-77
2022/10/15 07:42:58;;;;;;;83.35;38.85;;;12.60;99.90;;;;;;5089533;28;20409;-77
2022/10/15 07:45:25;;;;;;;85.30;39.60;;;12.60;99.90;;;;;;5089809;28;20903;-77
2022/10/15 07:47:51;;;;;;;78.97;38.33;;;12.70;99.90;;;;;;5089357;28;20432;-77
2022/10/15 07:50:18;;;;;;;78.60;38.45;;;12.80;99.90;;;;;;5088255;28;20398;-77
2022/10/15 07:52:43;;;;;;;83.53;38.63;;;12.80;99.90;;;;;;5088832;28;20417;-77
2022/10/15 07:55:10;;;;;;;79.88;37.72;;;12.80;99.90;;;;;;5088658;28;20413;-77
2022/10/15 07:57:35;;;;;;;77.65;38.33;;;12.90;99.90;;;;;;5090409;28;20470;-77
2022/10/15 08:00:01;;;;;;;77.23;37.90;;;13.00;99.90;;;;;;5089389;28;20907;-77
2022/10/15 08:02:27;;;;;;;79.80;38.70;;;13.00;99.90;;;;;;5097691;28;20408;-77
2022/10/15 08:04:52;;;;;;;77.80;37.50;;;13.00;99.90;;;;;;5086309;28;20477;-77
2022/10/15 08:07:18;;;;;;;73.30;36.78;;;13.10;99.90;;;;;;5095515;28;20423;-77
2022/10/15 08:09:43;;;;;;;73.77;36.00;;;13.10;99.90;;;;;;5088256;28;20413;-77
2022/10/15 08:12:09;;;;;;;70.07;36.38;;;13.30;99.90;;;;;;5071553;28;20410;-77
2022/10/15 08:14:35;;;;;;;70.77;36.47;;;13.30;99.90;;;;;;5088340;28;20445;-76
2022/10/15 08:17:03;;;;;;;71.95;37.13;;;13.30;99.90;;;;;;5083596;28;20899;-76
2022/10/15 08:19:28;;;;;;;67.63;35.03;;;13.30;99.90;;;;;;5088969;28;20481;-76
2022/10/15 08:21:55;;;;;;;67.32;35.47;;;13.40;99.90;;;;;;5088420;28;20493;-76
2022/10/15 08:24:21;;;;;;;63.72;35.13;;;13.30;99.90;;;;;;5089498;28;20458;-77
2022/10/15 08:26:46;;;;;;;69.23;35.33;;;13.30;99.90;;;;;;5088431;28;20402;-77
2022/10/15 08:29:12;;;;;;;64.20;34.70;;;13.40;99.90;;;;;;5084566;28;20554;-76
2022/10/15 08:31:39;;;;;;;67.30;35.40;;;13.40;99.90;;;;;;5088939;28;20817;-77
2022/10/15 08:34:05;;;;;;;63.17;32.93;;;13.50;99.90;;;;;;5088536;28;20465;-76
2022/10/15 08:36:30;;;;;;;57.75;33.13;;;13.60;99.90;;;;;;5088091;28;20406;-77
2022/10/15 08:38:57;;;;;;;60.30;32.73;;;13.60;99.90;;;;;;5089006;28;20920;-77
2022/10/15 08:41:32;;;;;;;58.30;32.53;;;13.60;99.90;;;;;;5088818;28;20431;-77
2022/10/15 08:43:58;;;;;;;60.20;32.83;;;13.60;99.90;;;;;;5087819;28;20413;-77
2022/10/15 08:46:42;;;;;;;58.88;32.78;;;13.70;99.90;;;;;;5090740;28;21074;-77
2022/10/15 08:49:35;;;;;;;55.03;32.42;;;13.80;99.90;;;;;;5079435;28;20445;-77
2022/10/15 08:52:15;;;;;;;56.67;31.10;;;13.90;99.90;;;;;;5073474;28;20414;-77
2022/10/15 08:54:41;;;;;;;51.25;30.85;;;14.00;99.90;;;;;;5083431;28;20983;-77
2022/10/15 08:57:16;;;;;;;51.23;29.60;;;14.20;99.90;;;;;;5086469;28;20430;-77
2022/10/15 09:00:01;;;;;;;52.40;31.05;;;14.30;99.90;;;;;;5071151;28;20410;-78
2022/10/15 09:02:46;;;;;;;48.70;28.77;;;14.70;99.90;;;;;;5087868;28;20927;-78
2022/10/15 09:05:27;;;;;;;42.78;28.17;;;15.00;99.90;;;;;;5085461;28;20421;-78
2022/10/15 09:08:02;;;;;;;46.65;28.60;;;15.00;99.90;;;;;;5088162;28;20409;-78
2022/10/15 09:10:35;;;;;;;44.33;27.53;;;15.30;99.90;;;;;;5091525;28;20425;-78
2022/10/15 09:13:06;;;;;;;42.95;28.52;;;15.30;99.90;;;;;;5087753;28;20492;-71
2022/10/15 09:15:39;;;;;;;44.65;28.08;;;15.20;99.90;;;;;;5088595;28;20800;-74
2022/10/15 09:18:15;;;;;;;45.63;28.60;;;15.10;99.90;;;;;;5086957;28;20493;-75
2022/10/15 09:20:42;;;;;;;43.53;28.50;;;15.10;99.90;;;;;;5079575;28;20410;-75
2022/10/15 09:23:21;;;;;;;45.60;30.00;;;15.00;99.90;;;;;;5092331;28;20995;-73
2022/10/15 09:25:57;;;;;;;43.67;28.08;;;15.00;99.90;;;;;;5093240;28;20935;-78
2022/10/15 09:28:28;;;;;;;46.67;29.25;;;15.00;99.90;;;;;;5080033;28;20843;-76
2022/10/15 09:30:57;;;;;;;47.35;29.85;;;15.00;99.90;;;;;;5086640;28;21011;-77
2022/10/15 09:33:34;;;;;;;43.23;29.03;;;15.10;99.90;;;;;;5085445;28;20402;-77
2022/10/15 09:36:32;;;;;;;44.10;28.67;;;15.10;99.90;;;;;;5087027;28;20429;-77
2022/10/15 09:39:23;;;;;;;41.75;27.15;;;15.20;99.90;;;;;;5079785;28;20783;-77
2022/10/15 09:42:15;;;;;;;41.20;27.15;;;15.30;99.90;;;;;;5069656;28;20901;-77
2022/10/15 09:44:44;;;;;;;40.50;27.97;;;15.40;99.90;;;;;;5086804;28;20414;-77
2022/10/15 09:47:25;;;;;;;37.95;24.92;;;15.40;99.90;;;;;;5087032;28;20406;-77
2022/10/15 09:49:50;;;;;;;35.85;24.15;;;15.30;99.90;;;;;;5086690;28;20406;-77
2022/10/15 09:52:21;;;;;;;36.58;24.73;;;15.30;99.90;;;;;;5086904;28;20482;-77
2022/10/15 09:55:06;;;;;;;36.40;24.75;;;15.30;99.90;;;;;;5086635;28;20430;-77
2022/10/15 09:57:35;;;;;;;37.08;24.23;;;15.40;99.90;;;;;;5076877;28;20459;-77
2022/10/15 10:00:04;;;;;;;37.05;24.67;;;15.40;99.90;;;;;;5088131;28;20467;-77
2022/10/15 10:02:29;;;;;;;38.20;25.45;;;15.40;99.90;;;;;;5088457;28;20474;-77
2022/10/15 10:04:55;;;;;;;38.28;26.05;;;15.30;99.90;;;;;;5086086;28;20427;-77
2022/10/15 10:07:36;;;;;;;40.40;27.17;;;15.30;99.90;;;;;;5086904;28;20752;-77
2022/10/15 10:10:22;;;;;;;39.10;26.10;;;15.30;99.90;;;;;;5086735;28;20413;-77
2022/10/15 10:12:48;;;;;;;39.35;25.27;;;15.20;99.90;;;;;;5086785;28;20906;-77
2022/10/15 10:15:38;;;;;;;33.90;23.25;;;15.10;99.90;;;;;;5080116;28;20431;-77
2022/10/15 10:18:06;;;;;;;26.27;19.67;;;15.20;99.90;;;;;;5097128;28;20418;-77
2022/10/15 10:20:33;;;;;;;27.88;18.38;;;15.20;99.90;;;;;;5085665;28;20491;-78
2022/10/15 10:23:01;;;;;;;27.00;18.80;;;15.20;99.90;;;;;;5086010;28;20878;-78
2022/10/15 10:25:32;;;;;;;29.20;20.38;;;15.20;99.90;;;;;;5086638;28;20440;-77
2022/10/15 10:28:10;;;;;;;28.10;21.13;;;15.10;99.90;;;;;;5087184;28;20402;-77
2022/10/15 10:30:41;;;;;;;29.52;20.75;;;15.00;99.90;;;;;;5086399;28;20810;-77
2022/10/15 10:33:11;;;;;;;30.23;20.63;;;14.90;99.90;;;;;;5075290;28;20459;-77
2022/10/15 10:35:49;;;;;;;31.95;20.80;;;14.90;99.90;;;;;;5086587;28;20588;-77
2022/10/15 10:38:36;;;;;;;27.38;20.42;;;14.80;99.90;;;;;;5085963;28;20780;-77
2022/10/15 10:41:08;;;;;;;32.75;22.17;;;14.70;99.90;;;;;;5097607;28;20417;-77
2022/10/15 10:43:54;;;;;;;32.08;21.92;;;14.60;99.90;;;;;;5089339;28;20451;-77
2022/10/15 10:46:22;;;;;;;31.58;21.10;;;14.60;99.90;;;;;;5091019;28;20424;-77
2022/10/15 10:48:52;;;;;;;30.67;19.83;;;14.60;99.90;;;;;;5089826;28;20425;-76
2022/10/15 10:51:24;;;;;;;31.23;18.75;;;14.50;99.90;;;;;;5090267;28;20737;-76
2022/10/15 10:53:55;;;;;;;26.30;16.70;;;14.50;99.90;;;;;;5095470;28;20423;-77
2022/10/15 10:56:43;;;;;;;24.08;15.32;;;14.50;99.90;;;;;;5103963;28;20765;-77
2022/10/15 10:59:29;;;;;;;23.02;14.65;;;14.50;99.90;;;;;;5099424;28;20472;-77
2022/10/15 11:01:56;;;;;;;25.58;15.20;;;14.50;99.90;;;;;;5089853;28;20857;-77
2022/10/15 11:04:29;;;;;;;23.60;14.73;;;14.50;99.90;;;;;;5101338;28;20850;-77
2022/10/15 11:07:00;;;;;;;23.17;15.05;;;14.40;99.90;;;;;;5105335;28;20461;-77
2022/10/15 11:09:58;;;;;;;26.23;15.55;;;14.50;99.90;;;;;;5134749;27;20769;-77
2022/10/15 11:12:48;;;;;;;27.02;16.13;;;14.50;99.90;;;;;;5136577;27;20427;-77
2022/10/15 11:15:27;;;;;;;26.80;15.40;;;14.50;99.90;;;;;;5099101;28;20438;-77
2022/10/15 11:18:24;;;;;;;25.92;16.60;;;14.50;99.90;;;;;;5102013;28;20549;-77
2022/10/15 11:21:23;;;;;;;24.15;15.10;;;14.50;99.90;;;;;;5102251;28;20414;-77
2022/10/15 11:24:25;;;;;;;26.02;16.00;;;14.60;99.90;;;;;;5079999;28;20514;-77
2022/10/15 11:27:01;;;;;;;25.38;15.70;;;14.70;99.90;;;;;;5071245;28;20483;-77
2022/10/15 11:29:50;;;;;;;26.38;16.05;;;14.70;99.90;;;;;;5068331;28;20538;-77
2022/10/15 11:32:33;;;;;;;25.17;15.82;;;14.80;99.90;;;;;;5089170;28;21067;-78
2022/10/15 11:35:29;;;;;;;26.83;16.08;;;14.80;99.90;;;;;;5088357;28;20434;-78
2022/10/15 11:38:18;;;;;;;23.97;15.40;;;14.80;99.90;;;;;;5089132;28;20414;-78
2022/10/15 11:41:05;;;;;;;24.13;15.20;;;14.80;99.90;;;;;;5088912;28;20440;-78
2022/10/15 11:43:36;;;;;;;23.50;14.50;;;14.90;99.90;;;;;;5089591;28;20413;-78
2022/10/15 11:46:31;;;;;;;22.48;14.18;;;14.90;99.90;;;;;;5088665;28;20441;-77
2022/10/15 11:49:12;;;;;;;20.98;13.30;;;15.00;99.90;;;;;;5062575;28;20434;-77
2022/10/15 11:52:08;;;;;;;21.65;13.90;;;15.10;99.90;;;;;;5089198;28;20421;-77
2022/10/15 11:54:52;;;;;;;22.58;14.43;;;15.30;99.90;;;;;;5088280;28;20542;-76
2022/10/15 11:57:19;;;;;;;23.55;14.18;;;15.30;99.90;;;;;;5087621;28;20528;-77
2022/10/15 12:00:04;;;;;;;25.23;14.13;;;15.30;99.90;;;;;;5089488;28;20489;-77
2022/10/15 12:02:38;;;;;;;21.07;13.87;;;15.40;99.90;;;;;;5088360;28;20413;-77
2022/10/15 12:05:14;;;;;;;20.23;12.88;;;15.40;99.90;;;;;;5088255;28;20787;-77
2022/10/15 12:07:46;;;;;;;19.35;12.50;;;15.40;99.90;;;;;;5077973;28;20435;-77
2022/10/15 12:10:12;;;;;;;18.23;11.75;;;15.40;99.90;;;;;;5087662;28;20449;-77
2022/10/15 12:12:50;;;;;;;19.13;12.43;;;15.40;99.90;;;;;;5088250;28;20829;-77
2022/10/15 12:15:40;;;;;;;20.15;12.10;;;15.40;99.90;;;;;;5058695;28;20434;-77
2022/10/15 12:18:22;;;;;;;17.38;11.82;;;15.40;99.90;;;;;;5087748;28;20425;-77
2022/10/15 12:20:48;;;;;;;18.85;11.32;;;15.50;99.90;;;;;;5088517;28;20883;-77
2022/10/15 12:23:35;;;;;;;16.20;11.68;;;15.50;99.90;;;;;;5088687;28;20402;-77
2022/10/15 12:26:00;;;;;;;16.63;11.60;;;15.50;99.90;;;;;;5087745;28;20848;-77
2022/10/15 12:28:29;;;;;;;15.75;11.02;;;15.50;99.90;;;;;;5088718;28;20480;-77
2022/10/15 12:31:03;;;;;;;16.70;11.40;;;15.50;99.90;;;;;;5088662;28;20466;-77
2022/10/15 12:33:44;;;;;;;15.98;11.43;;;15.50;99.90;;;;;;5085544;28;20418;-77
2022/10/15 12:36:29;;;;;;;17.43;11.53;;;15.50;99.90;;;;;;5122088;27;20494;-76
2022/10/15 12:39:01;;;;;;;17.20;12.23;;;15.50;99.90;;;;;;5122225;27;20927;-77
2022/10/15 12:41:43;;;;;;;16.83;11.43;;;15.50;99.90;;;;;;5089629;28;20449;-77
2022/10/15 12:44:22;;;;;;;17.60;12.13;;;15.40;99.90;;;;;;5087626;28;21004;-77
2022/10/15 12:46:48;;;;;;;16.00;11.82;;;15.40;99.90;;;;;;5087512;28;20421;-77